Time;durP1;ratioP1;P1;durP2;ratioP2;P2;SDS_P1;SDS_P2;PMS_P1;PMS_P2;Temp;Humidity;BMP_temperature;BMP_pressure;BME280_temperature;BME280_humidity;BME280_pressure;Samples;Min_cycle;Max_cycle;Signal;HPM_P1;HPM_P2
2021/06/15 00:01:51;;;;;;;11.15;5.70;;;22.50;94.00;;;;;;5071598;28;20378;-76
2021/06/15 00:04:17;;;;;;;12.77;6.00;;;22.50;94.10;;;;;;5061290;28;20040;-75
2021/06/15 00:06:43;;;;;;;12.75;6.85;;;22.50;94.20;;;;;;5070973;28;20086;-75
2021/06/15 00:09:09;;;;;;;12.05;6.50;;;22.50;94.30;;;;;;5056179;28;20031;-75
2021/06/15 00:11:34;;;;;;;10.05;6.72;;;22.60;94.20;;;;;;5071311;28;20031;-76
2021/06/15 00:14:00;;;;;;;9.90;6.63;;;22.70;94.10;;;;;;5056446;28;20430;-76
2021/06/15 00:16:26;;;;;;;19.40;6.28;;;22.50;94.20;;;;;;5052190;28;20021;-76
2021/06/15 00:18:52;;;;;;;14.85;7.00;;;22.50;94.30;;;;;;5064218;28;20498;-76
2021/06/15 00:21:17;;;;;;;15.30;6.18;;;22.60;94.30;;;;;;5071112;28;20029;-76
2021/06/15 00:23:43;;;;;;;10.25;5.55;;;22.60;94.50;;;;;;5063125;28;20036;-76
2021/06/15 00:26:09;;;;;;;14.52;5.60;;;22.50;94.50;;;;;;5052122;28;20554;-75
2021/06/15 00:28:36;;;;;;;10.57;5.75;;;22.60;94.30;;;;;;5058976;28;20064;-76
2021/06/15 00:31:03;;;;;;;13.45;6.90;;;22.60;94.30;;;;;;5069249;28;20498;-76
2021/06/15 00:33:28;;;;;;;13.75;5.78;;;22.60;94.30;;;;;;5062422;28;20036;-75
2021/06/15 00:35:54;;;;;;;10.25;6.82;;;22.60;94.20;;;;;;5052099;28;20116;-76
2021/06/15 00:38:20;;;;;;;14.05;6.43;;;22.60;94.30;;;;;;5059505;28;20475;-76
2021/06/15 00:40:45;;;;;;;13.02;6.47;;;22.60;94.30;;;;;;5070066;28;20033;-76
2021/06/15 00:43:11;;;;;;;13.57;5.72;;;22.60;94.40;;;;;;5064254;28;20040;-76
2021/06/15 00:45:37;;;;;;;10.25;5.22;;;22.50;94.40;;;;;;5051898;28;20029;-76
2021/06/15 00:48:03;;;;;;;9.55;5.25;;;22.50;94.40;;;;;;5059114;28;20021;-76
2021/06/15 00:50:29;;;;;;;9.95;5.47;;;22.50;94.50;;;;;;5061121;28;20478;-76
2021/06/15 00:52:57;;;;;;;9.98;5.15;;;22.50;94.60;;;;;;5068459;28;20043;-76
2021/06/15 00:55:24;;;;;;;8.77;5.20;;;22.50;94.60;;;;;;5051509;28;20063;-76
2021/06/15 00:57:51;;;;;;;11.15;5.40;;;22.50;94.60;;;;;;5056770;28;20130;-76
2021/06/15 01:00:18;;;;;;;12.95;5.50;;;22.50;94.40;;;;;;5051821;28;20356;-76
2021/06/15 01:02:44;;;;;;;12.38;5.65;;;22.60;94.30;;;;;;5055062;28;20028;-76
2021/06/15 01:05:13;;;;;;;10.95;5.10;;;22.60;94.40;;;;;;5070434;28;20081;-76
2021/06/15 01:08:03;;;;;;;8.70;5.45;;;22.60;94.50;;;;;;5068169;28;20040;-75
2021/06/15 01:10:56;;;;;;;9.95;4.82;;;22.60;94.90;;;;;;5052511;28;20490;-76
2021/06/15 01:13:38;;;;;;;16.15;6.07;;;22.60;95.10;;;;;;5063982;28;20034;-75
2021/06/15 01:16:26;;;;;;;7.00;4.88;;;22.60;95.40;;;;;;5074084;28;20077;-76
2021/06/15 01:19:07;;;;;;;13.35;5.80;;;22.60;95.20;;;;;;5065987;28;20107;-76
2021/06/15 01:21:47;;;;;;;10.38;5.25;;;22.50;95.40;;;;;;5055585;28;20029;-76
2021/06/15 01:24:25;;;;;;;12.43;5.30;;;22.40;95.70;;;;;;5066607;28;20073;-76
2021/06/15 01:27:12;;;;;;;8.32;4.97;;;22.40;95.90;;;;;;5057082;28;20120;-76
2021/06/15 01:29:40;;;;;;;12.05;5.50;;;22.40;96.00;;;;;;5075399;28;20490;-76
2021/06/15 01:32:15;;;;;;;9.90;6.32;;;22.20;96.00;;;;;;5074301;28;20108;-76
2021/06/15 01:34:43;;;;;;;13.88;6.45;;;22.20;95.70;;;;;;5066220;28;20029;-76
2021/06/15 01:37:20;;;;;;;10.00;5.43;;;22.20;95.70;;;;;;5059770;28;20082;-76
2021/06/15 01:40:12;;;;;;;9.07;5.95;;;22.10;95.70;;;;;;5055087;28;20091;-75
2021/06/15 01:42:53;;;;;;;10.60;6.33;;;22.10;95.80;;;;;;5067460;28;20029;-76
2021/06/15 01:45:25;;;;;;;13.55;5.00;;;22.00;95.70;;;;;;5061746;28;20071;-76
2021/06/15 01:48:27;;;;;;;9.70;6.05;;;22.00;95.70;;;;;;5058348;28;20028;-76
2021/06/15 01:50:56;;;;;;;12.50;6.15;;;22.10;95.90;;;;;;5051711;28;20033;-76
2021/06/15 01:53:23;;;;;;;11.98;5.93;;;22.20;95.80;;;;;;5063065;28;20021;-76
2021/06/15 01:55:54;;;;;;;13.23;5.88;;;22.20;95.80;;;;;;5054799;28;20025;-76
2021/06/15 01:58:27;;;;;;;10.88;5.82;;;22.20;96.10;;;;;;5064545;28;20029;-76
2021/06/15 02:00:54;;;;;;;13.30;4.97;;;22.20;96.60;;;;;;5057171;28;20111;-76
2021/06/15 02:03:21;;;;;;;11.40;5.90;;;22.20;96.40;;;;;;5065690;28;20037;-76
2021/06/15 02:05:55;;;;;;;8.88;5.75;;;22.20;96.60;;;;;;5074597;28;20119;-76
2021/06/15 02:08:34;;;;;;;15.90;5.50;;;22.20;96.70;;;;;;5064377;28;20533;-76
2021/06/15 02:11:01;;;;;;;11.05;5.35;;;22.20;96.70;;;;;;5054875;28;20028;-76
2021/06/15 02:13:32;;;;;;;11.90;5.68;;;22.10;96.70;;;;;;5063906;28;20036;-76
2021/06/15 02:16:00;;;;;;;13.10;5.18;;;21.60;97.20;;;;;;5064693;28;20029;-76
2021/06/15 02:18:29;;;;;;;15.70;6.30;;;21.30;97.50;;;;;;5052619;28;20528;-76
2021/06/15 02:20:57;;;;;;;7.70;5.93;;;21.20;97.70;;;;;;5066583;28;20116;-76
2021/06/15 02:23:24;;;;;;;11.38;5.72;;;21.20;97.70;;;;;;5073291;28;20033;-77
2021/06/15 02:25:58;;;;;;;13.85;6.85;;;21.10;97.80;;;;;;5062469;28;20037;-76
2021/06/15 02:28:23;;;;;;;11.35;5.75;;;21.00;98.20;;;;;;5069820;28;20086;-76
2021/06/15 02:30:49;;;;;;;13.45;6.07;;;20.90;98.50;;;;;;5063004;28;20041;-76
2021/06/15 02:33:24;;;;;;;13.07;5.80;;;21.00;98.60;;;;;;5055064;28;20450;-76
2021/06/15 02:35:55;;;;;;;8.82;5.97;;;20.90;98.70;;;;;;5064361;28;20024;-76
2021/06/15 02:38:30;;;;;;;16.13;6.70;;;20.80;99.00;;;;;;5056483;28;20025;-76
2021/06/15 02:41:02;;;;;;;13.43;6.00;;;20.80;99.10;;;;;;5063010;28;20375;-76
2021/06/15 02:43:28;;;;;;;8.75;5.88;;;20.90;99.10;;;;;;5054090;28;20068;-75
2021/06/15 02:45:56;;;;;;;12.18;6.20;;;20.80;99.20;;;;;;5052962;28;20391;-76
2021/06/15 02:48:24;;;;;;;10.95;6.43;;;20.80;99.10;;;;;;5053551;28;20025;-75
2021/06/15 02:50:53;;;;;;;10.13;6.05;;;20.80;99.10;;;;;;5062327;28;20052;-75
2021/06/15 02:53:46;;;;;;;12.35;6.07;;;20.80;99.10;;;;;;5072711;28;20067;-76
2021/06/15 02:56:22;;;;;;;12.50;6.43;;;20.90;99.10;;;;;;5060990;28;20443;-76
2021/06/15 02:58:48;;;;;;;10.02;5.93;;;20.80;99.10;;;;;;5073637;28;20078;-76
2021/06/15 03:01:14;;;;;;;12.45;7.10;;;20.80;99.10;;;;;;5061977;28;20025;-76
2021/06/15 03:03:40;;;;;;;9.77;6.10;;;20.90;99.00;;;;;;5046712;28;20041;-76
2021/06/15 03:06:06;;;;;;;10.13;6.03;;;20.90;99.30;;;;;;5046864;28;20035;-76
2021/06/15 03:08:38;;;;;;;11.13;6.60;;;20.90;98.90;;;;;;5063532;28;20071;-76
2021/06/15 03:11:05;;;;;;;10.20;6.13;;;20.80;98.90;;;;;;5057168;28;20062;-76
2021/06/15 03:13:46;;;;;;;10.27;6.18;;;20.80;99.00;;;;;;5046143;28;20108;-76
2021/06/15 03:16:17;;;;;;;9.63;5.68;;;20.80;99.00;;;;;;5057814;28;20035;-76
2021/06/15 03:18:59;;;;;;;11.48;6.13;;;20.70;99.10;;;;;;5058344;28;20055;-76
2021/06/15 03:21:29;;;;;;;10.07;6.82;;;20.60;99.20;;;;;;5065889;28;20029;-76
2021/06/15 03:24:02;;;;;;;12.05;6.10;;;20.70;99.20;;;;;;5050163;28;20096;-76
2021/06/15 03:26:38;;;;;;;13.00;5.93;;;20.60;99.30;;;;;;5045442;28;20128;-76
2021/06/15 03:29:08;;;;;;;10.88;6.78;;;20.70;99.10;;;;;;5048852;28;20216;-76
2021/06/15 03:31:39;;;;;;;10.65;6.15;;;20.70;99.10;;;;;;5044415;28;20370;-76
2021/06/15 03:34:08;;;;;;;12.52;6.20;;;20.80;99.10;;;;;;5046510;28;20036;-76
2021/06/15 03:36:37;;;;;;;11.57;6.22;;;20.80;98.90;;;;;;5056895;28;20607;-76
2021/06/15 03:39:05;;;;;;;13.90;6.35;;;20.70;99.20;;;;;;5065481;28;20016;-76
2021/06/15 03:41:31;;;;;;;18.13;6.53;;;20.60;99.20;;;;;;5055494;28;20132;-76
2021/06/15 03:44:00;;;;;;;8.57;5.93;;;20.70;99.30;;;;;;5064344;28;20046;-76
2021/06/15 03:46:27;;;;;;;9.35;6.15;;;20.80;99.30;;;;;;5055425;28;20108;-76
2021/06/15 03:48:53;;;;;;;15.23;5.97;;;20.80;99.30;;;;;;5051465;28;20032;-76
2021/06/15 03:51:32;;;;;;;10.43;5.70;;;20.90;99.30;;;;;;5055654;28;20040;-75
2021/06/15 03:54:06;;;;;;;10.73;6.63;;;20.60;99.80;;;;;;5053340;28;20036;-75
2021/06/15 03:56:44;;;;;;;9.32;5.90;;;20.50;99.80;;;;;;5064718;28;20033;-76
2021/06/15 03:59:15;;;;;;;8.73;5.68;;;20.50;99.90;;;;;;5055186;28;20044;-76
2021/06/15 04:01:42;;;;;;;10.32;6.20;;;20.40;99.90;;;;;;5044970;28;20056;-76
2021/06/15 04:04:10;;;;;;;10.35;5.70;;;20.50;99.90;;;;;;5058915;28;20040;-76
2021/06/15 04:06:44;;;;;;;15.15;5.70;;;20.40;99.90;;;;;;5052096;28;20087;-76
2021/06/15 04:09:11;;;;;;;9.23;6.43;;;20.50;99.90;;;;;;5048056;28;20116;-76
2021/06/15 04:11:40;;;;;;;7.43;5.25;;;20.50;99.90;;;;;;5048433;28;20032;-76
2021/06/15 04:14:08;;;;;;;9.60;5.60;;;20.40;99.90;;;;;;5062512;28;20025;-76
2021/06/15 04:16:35;;;;;;;10.25;6.38;;;20.30;99.90;;;;;;5062682;28;20111;-75
2021/06/15 04:19:04;;;;;;;8.60;5.32;;;20.30;99.90;;;;;;5064219;28;20041;-76
2021/06/15 04:21:34;;;;;;;9.38;5.57;;;20.30;99.90;;;;;;5062570;28;20025;-76
2021/06/15 04:24:06;;;;;;;9.02;6.28;;;20.40;99.90;;;;;;5054092;28;20036;-76
2021/06/15 04:26:35;;;;;;;10.88;5.70;;;20.40;99.90;;;;;;5062941;28;20028;-76
2021/06/15 04:29:04;;;;;;;12.32;6.93;;;20.40;99.90;;;;;;5044801;28;20032;-76
2021/06/15 04:31:31;;;;;;;12.82;6.68;;;20.40;99.90;;;;;;5059183;28;20017;-76
2021/06/15 04:33:59;;;;;;;10.32;6.50;;;20.40;99.90;;;;;;5044305;28;20043;-76
2021/06/15 04:36:27;;;;;;;8.95;5.93;;;20.40;99.90;;;;;;5061749;28;20024;-76
2021/06/15 04:39:11;;;;;;;9.57;6.20;;;20.40;99.90;;;;;;5050635;28;20059;-76
2021/06/15 04:41:39;;;;;;;9.63;6.55;;;20.40;99.90;;;;;;5062906;28;20460;-76
2021/06/15 04:44:21;;;;;;;8.75;5.85;;;20.50;99.90;;;;;;5058614;28;20036;-76
2021/06/15 04:47:13;;;;;;;10.40;6.35;;;20.50;99.90;;;;;;5043369;28;20108;-76
2021/06/15 04:49:50;;;;;;;9.00;5.97;;;20.60;99.90;;;;;;5064267;28;20035;-76
2021/06/15 04:52:19;;;;;;;12.00;6.82;;;20.60;99.90;;;;;;5063260;28;20070;-76
2021/06/15 04:54:48;;;;;;;12.48;6.80;;;20.50;99.90;;;;;;5056162;28;20052;-76
2021/06/15 04:57:19;;;;;;;11.57;5.68;;;20.70;99.90;;;;;;5050601;28;20046;-76
2021/06/15 04:59:48;;;;;;;10.75;6.10;;;20.70;99.90;;;;;;5044318;28;20127;-76
2021/06/15 05:02:19;;;;;;;11.43;5.93;;;20.80;99.90;;;;;;5044002;28;20240;-76
2021/06/15 05:04:46;;;;;;;10.20;6.32;;;20.90;99.90;;;;;;5058911;28;20029;-76
2021/06/15 05:07:18;;;;;;;10.75;6.15;;;21.10;99.90;;;;;;5059849;28;20033;-76
2021/06/15 05:09:46;;;;;;;11.63;6.70;;;21.30;99.90;;;;;;5064147;28;20027;-76
2021/06/15 05:12:13;;;;;;;11.50;6.95;;;21.40;99.90;;;;;;5049938;28;20021;-76
2021/06/15 05:14:41;;;;;;;10.80;6.35;;;21.50;99.90;;;;;;5060680;28;20040;-76
2021/06/15 05:17:08;;;;;;;7.60;5.30;;;21.60;99.90;;;;;;5043610;28;20048;-76
2021/06/15 05:19:34;;;;;;;8.25;6.22;;;21.60;99.90;;;;;;5044937;28;20363;-76
2021/06/15 05:22:08;;;;;;;12.00;6.88;;;21.70;99.90;;;;;;5051571;28;20540;-76
2021/06/15 05:24:54;;;;;;;15.55;6.47;;;21.80;99.90;;;;;;5046642;28;20047;-76
2021/06/15 05:27:25;;;;;;;10.93;6.30;;;21.80;99.90;;;;;;5043966;28;20047;-76
2021/06/15 05:29:52;;;;;;;10.60;6.00;;;21.90;99.90;;;;;;5056865;28;20029;-76
2021/06/15 05:32:18;;;;;;;12.82;6.15;;;21.90;99.90;;;;;;5070374;28;20037;-76
2021/06/15 05:34:44;;;;;;;8.50;5.30;;;21.90;99.90;;;;;;5060914;28;20300;-76
2021/06/15 05:37:10;;;;;;;10.30;5.32;;;22.00;99.90;;;;;;5053624;28;20593;-77
2021/06/15 05:39:37;;;;;;;11.00;5.72;;;22.00;99.90;;;;;;5059550;28;20031;-76
2021/06/15 05:42:04;;;;;;;9.75;5.97;;;22.00;99.90;;;;;;5064038;28;20497;-75
2021/06/15 05:44:30;;;;;;;9.55;5.15;;;22.00;99.80;;;;;;5053532;28;20037;-75
2021/06/15 05:46:56;;;;;;;11.27;5.40;;;22.10;99.70;;;;;;5043781;28;20040;-75
2021/06/15 05:49:22;;;;;;;13.02;5.72;;;22.00;99.80;;;;;;5043775;28;20029;-75
2021/06/15 05:51:48;;;;;;;11.80;6.35;;;22.10;99.70;;;;;;5043669;28;20053;-76
2021/06/15 05:54:14;;;;;;;17.85;6.03;;;22.00;99.90;;;;;;5043074;28;20029;-76
2021/06/15 05:56:40;;;;;;;11.30;4.95;;;22.00;99.90;;;;;;5043736;28;20029;-76
2021/06/15 05:59:05;;;;;;;11.95;6.15;;;22.00;99.60;;;;;;5045709;28;20120;-76
2021/06/15 06:01:31;;;;;;;9.80;6.22;;;22.10;99.70;;;;;;5047468;28;20059;-75
2021/06/15 06:04:08;;;;;;;14.70;5.95;;;22.10;99.50;;;;;;5046723;28;20044;-75
2021/06/15 06:09:18;;;;;;;;;;;22.10;99.10;;;;;;5046310;28;20036;-75
2021/06/15 06:11:44;;;;;;;10.85;5.00;;;22.20;98.90;;;;;;5050219;28;20347;-78
2021/06/15 06:14:10;;;;;;;21.40;5.90;;;22.30;99.00;;;;;;5050259;28;20017;-78
2021/06/15 06:16:36;;;;;;;9.82;4.25;;;22.30;98.50;;;;;;5047496;28;20036;-79
2021/06/15 06:19:04;;;;;;;13.65;4.80;;;22.40;98.20;;;;;;5047404;28;20080;-78
2021/06/15 06:21:34;;;;;;;16.27;5.45;;;22.50;98.20;;;;;;5046822;28;20467;-74
2021/06/15 06:24:01;;;;;;;9.57;5.03;;;22.50;97.90;;;;;;5046597;28;20045;-74
2021/06/15 06:26:27;;;;;;;10.45;5.13;;;22.50;97.90;;;;;;5045948;28;20037;-74
2021/06/15 06:28:54;;;;;;;12.18;4.85;;;22.50;98.10;;;;;;5046484;28;20028;-74
2021/06/15 06:31:20;;;;;;;7.03;4.22;;;22.40;98.00;;;;;;5045639;28;20037;-75
2021/06/15 06:33:46;;;;;;;11.45;4.53;;;22.50;98.00;;;;;;5046098;28;20028;-74
2021/06/15 06:36:12;;;;;;;10.85;4.90;;;22.60;97.90;;;;;;5045501;28;20508;-74
2021/06/15 06:38:38;;;;;;;8.38;4.93;;;22.60;97.70;;;;;;5050359;28;20024;-75
2021/06/15 06:41:04;;;;;;;9.93;5.10;;;22.60;97.40;;;;;;5066204;28;20031;-74
2021/06/15 06:43:30;;;;;;;10.07;4.95;;;22.60;97.80;;;;;;5065652;28;20032;-74
2021/06/15 06:45:56;;;;;;;11.15;5.43;;;22.70;97.60;;;;;;5065919;28;20104;-73
2021/06/15 06:48:21;;;;;;;9.73;5.13;;;22.70;97.50;;;;;;5064055;28;20056;-74
2021/06/15 06:50:47;;;;;;;8.75;4.60;;;22.80;97.30;;;;;;5047440;28;20025;-73
2021/06/15 06:53:13;;;;;;;16.58;5.68;;;22.80;97.60;;;;;;5044193;28;20057;-74
2021/06/15 06:55:39;;;;;;;17.50;5.78;;;22.90;97.20;;;;;;5045588;28;20025;-73
2021/06/15 06:58:06;;;;;;;11.02;5.22;;;23.00;97.20;;;;;;5045812;28;20037;-73
2021/06/15 07:00:33;;;;;;;8.00;4.82;;;23.00;97.30;;;;;;5059180;28;20024;-73
2021/06/15 07:02:58;;;;;;;10.15;5.22;;;23.30;97.30;;;;;;5065525;28;20032;-75
2021/06/15 07:05:24;;;;;;;11.27;4.90;;;23.50;96.90;;;;;;5065466;28;20035;-74
2021/06/15 07:07:51;;;;;;;11.65;5.40;;;23.60;96.60;;;;;;5065979;28;20492;-76
2021/06/15 07:10:18;;;;;;;12.18;5.03;;;23.70;96.80;;;;;;5055447;28;20028;-76
2021/06/15 07:12:44;;;;;;;10.85;4.90;;;23.70;96.10;;;;;;5045559;28;20017;-77
2021/06/15 07:15:10;;;;;;;42.03;7.53;;;24.00;95.70;;;;;;5046005;28;20100;-78
2021/06/15 07:17:36;;;;;;;10.52;5.57;;;24.10;95.40;;;;;;5045891;28;20379;-78
2021/06/15 07:20:03;;;;;;;18.90;5.45;;;24.00;95.20;;;;;;5047549;28;20024;-78
2021/06/15 07:22:28;;;;;;;10.40;4.30;;;23.80;95.30;;;;;;5061088;28;20474;-75
2021/06/15 07:24:54;;;;;;;10.27;4.68;;;23.90;95.20;;;;;;5064967;28;20043;-76
2021/06/15 07:27:20;;;;;;;19.85;4.93;;;24.10;94.80;;;;;;5064889;28;20588;-75
2021/06/15 07:29:46;;;;;;;12.15;4.80;;;24.50;94.80;;;;;;5065222;28;20028;-75
2021/06/15 07:32:11;;;;;;;8.65;4.10;;;24.80;94.70;;;;;;5062832;28;20024;-74
2021/06/15 07:34:37;;;;;;;8.32;4.63;;;25.20;94.30;;;;;;5064773;28;20029;-75
2021/06/15 07:37:03;;;;;;;9.63;5.05;;;25.50;94.00;;;;;;5064464;28;20139;-74
2021/06/15 07:39:29;;;;;;;8.13;4.45;;;26.10;92.90;;;;;;5064587;28;20360;-75
2021/06/15 07:41:54;;;;;;;14.75;3.80;;;26.40;92.80;;;;;;5062028;28;20040;-75
2021/06/15 07:44:20;;;;;;;8.35;4.40;;;26.50;92.60;;;;;;5057628;28;20041;-74
2021/06/15 07:46:46;;;;;;;8.15;3.45;;;26.30;92.20;;;;;;5044952;28;20032;-75
2021/06/15 07:49:11;;;;;;;10.10;4.38;;;26.20;92.30;;;;;;5044784;28;20477;-75
2021/06/15 07:51:37;;;;;;;10.55;4.05;;;26.10;92.40;;;;;;5044946;28;20036;-76
2021/06/15 07:54:04;;;;;;;16.77;4.95;;;25.90;92.30;;;;;;5044440;28;20021;-78
2021/06/15 07:56:30;;;;;;;22.27;4.45;;;25.90;92.30;;;;;;5045122;28;20064;-79
2021/06/15 07:58:56;;;;;;;10.65;4.57;;;25.90;92.50;;;;;;5045703;28;20049;-79
2021/06/15 08:01:22;;;;;;;10.65;4.07;;;26.10;92.50;;;;;;5045039;28;20028;-79
2021/06/15 08:03:48;;;;;;;9.50;3.97;;;26.10;92.10;;;;;;5044609;28;20494;-78
2021/06/15 08:06:13;;;;;;;13.05;3.85;;;25.90;91.70;;;;;;5044277;28;20514;-78
2021/06/15 08:08:39;;;;;;;10.65;4.28;;;26.00;91.80;;;;;;5064505;28;20036;-82
2021/06/15 08:11:05;;;;;;;9.75;3.70;;;25.60;91.90;;;;;;5065442;28;20036;-79
2021/06/15 08:13:31;;;;;;;7.15;3.35;;;25.40;91.70;;;;;;5064078;28;20037;-80
2021/06/15 08:15:57;;;;;;;10.35;3.90;;;25.30;92.10;;;;;;5064531;28;20028;-80
2021/06/15 08:18:24;;;;;;;13.95;3.80;;;25.70;91.30;;;;;;5049539;28;20057;-79
2021/06/15 08:20:52;;;;;;;10.27;4.10;;;25.90;91.70;;;;;;5044168;28;20166;-78
2021/06/15 08:23:18;;;;;;;9.68;3.78;;;25.30;91.40;;;;;;5043880;28;20029;-78
2021/06/15 08:25:44;;;;;;;8.55;3.78;;;24.90;91.60;;;;;;5043958;28;20044;-77
2021/06/15 08:28:11;;;;;;;10.32;3.88;;;25.40;91.70;;;;;;5053128;28;20038;-77
2021/06/15 08:30:38;;;;;;;9.75;3.38;;;26.00;91.90;;;;;;5064369;28;20032;-77
2021/06/15 08:33:03;;;;;;;9.40;3.67;;;26.20;90.70;;;;;;5064180;28;20039;-77
2021/06/15 08:35:29;;;;;;;14.45;4.30;;;26.20;91.20;;;;;;5063606;28;20748;-76
2021/06/15 08:37:56;;;;;;;11.25;4.40;;;26.30;91.50;;;;;;5059027;28;20033;-76
2021/06/15 08:40:22;;;;;;;8.68;3.60;;;26.50;91.40;;;;;;5043765;28;20598;-77
2021/06/15 08:42:47;;;;;;;7.32;4.03;;;26.50;91.20;;;;;;5043885;28;20025;-80
2021/06/15 08:45:15;;;;;;;10.27;4.13;;;26.40;91.50;;;;;;5043520;28;20516;-78
2021/06/15 08:47:43;;;;;;;11.13;4.30;;;26.20;91.60;;;;;;5043777;28;20036;-78
2021/06/15 08:50:10;;;;;;;8.02;4.18;;;26.40;91.60;;;;;;5043151;28;20021;-78
2021/06/15 08:52:37;;;;;;;11.52;4.25;;;26.70;90.80;;;;;;5043558;28;20159;-79
2021/06/15 08:55:04;;;;;;;8.40;3.95;;;26.80;90.60;;;;;;5043467;28;20120;-79
2021/06/15 08:57:32;;;;;;;7.25;3.80;;;26.60;90.10;;;;;;5052606;28;20032;-79
2021/06/15 09:00:01;;;;;;;12.50;3.80;;;26.70;90.10;;;;;;5063679;28;20024;-79
2021/06/15 09:02:28;;;;;;;10.10;4.53;;;26.90;90.50;;;;;;5063220;28;20029;-79
2021/06/15 09:04:54;;;;;;;10.55;3.83;;;26.20;90.30;;;;;;5059858;28;20029;-78
2021/06/15 09:07:20;;;;;;;8.13;3.67;;;26.20;90.40;;;;;;5043350;28;20521;-78
2021/06/15 09:09:48;;;;;;;9.23;3.63;;;26.60;90.70;;;;;;5043138;28;20104;-78
2021/06/15 09:12:20;;;;;;;7.25;3.70;;;26.50;90.20;;;;;;5043592;28;20465;-78
2021/06/15 09:14:50;;;;;;;11.27;4.57;;;26.60;90.70;;;;;;5043596;28;20021;-81
2021/06/15 09:17:33;;;;;;;41.55;5.70;;;26.70;90.00;;;;;;5049579;28;20135;-79
2021/06/15 09:20:10;;;;;;;11.63;4.88;;;26.90;90.20;;;;;;5043702;28;20032;-79
2021/06/15 09:22:36;;;;;;;6.25;3.83;;;27.20;89.60;;;;;;5043565;28;20027;-79
2021/06/15 09:25:05;;;;;;;7.05;4.00;;;27.00;90.20;;;;;;5044091;28;20028;-79
2021/06/15 09:27:33;;;;;;;7.10;3.90;;;27.10;90.00;;;;;;5060262;28;20044;-79
2021/06/15 09:30:00;;;;;;;6.78;3.65;;;26.90;89.50;;;;;;5064125;28;20665;-79
2021/06/15 09:32:28;;;;;;;7.85;4.00;;;26.90;89.70;;;;;;5065408;28;20560;-79
2021/06/15 09:35:00;;;;;;;11.38;4.50;;;27.10;90.00;;;;;;5067930;28;20501;-79
2021/06/15 09:37:32;;;;;;;11.05;4.22;;;27.40;90.10;;;;;;5054173;28;20069;-79
2021/06/15 09:39:59;;;;;;;8.65;4.07;;;27.50;88.90;;;;;;5048171;28;20495;-78
2021/06/15 09:42:25;;;;;;;11.00;4.00;;;27.60;89.70;;;;;;5047679;28;20062;-79
2021/06/15 09:44:51;;;;;;;13.52;4.68;;;27.90;88.70;;;;;;5047727;28;20374;-79
2021/06/15 09:47:22;;;;;;;13.65;5.00;;;28.00;88.70;;;;;;5047917;28;20044;-79
2021/06/15 09:49:47;;;;;;;6.53;4.35;;;28.10;89.40;;;;;;5067485;28;20567;-79
2021/06/15 09:52:26;;;;;;;9.27;4.72;;;28.00;87.80;;;;;;5067050;28;20024;-79
2021/06/15 09:55:11;;;;;;;14.15;4.60;;;27.90;88.90;;;;;;5067546;28;20021;-79
2021/06/15 09:57:40;;;;;;;8.35;4.25;;;28.10;88.30;;;;;;5058532;28;20033;-79
2021/06/15 10:00:16;;;;;;;13.25;4.60;;;28.00;88.50;;;;;;5047414;28;20028;-79
2021/06/15 10:02:50;;;;;;;8.27;5.05;;;28.40;89.30;;;;;;5047392;28;20052;-79
2021/06/15 10:05:37;;;;;;;11.70;5.18;;;28.70;87.70;;;;;;5047236;28;20033;-79
2021/06/15 10:08:06;;;;;;;7.75;4.75;;;28.30;87.80;;;;;;5055941;28;20032;-79
2021/06/15 10:10:44;;;;;;;11.27;3.90;;;28.40;88.30;;;;;;5065831;28;20029;-79
2021/06/15 10:13:10;;;;;;;8.32;4.20;;;28.70;86.70;;;;;;5066907;28;20025;-79
2021/06/15 10:15:39;;;;;;;11.00;4.53;;;28.20;88.60;;;;;;5067150;28;20064;-79
2021/06/15 10:18:05;;;;;;;10.65;4.95;;;28.10;88.30;;;;;;5060614;28;20045;-79
2021/06/15 10:20:34;;;;;;;10.40;4.05;;;28.00;90.60;;;;;;5047789;28;20115;-79
2021/06/15 10:23:00;;;;;;;6.43;3.22;;;28.40;89.10;;;;;;5046996;28;20029;-79
2021/06/15 10:25:29;;;;;;;6.20;4.25;;;28.40;87.60;;;;;;5046853;28;20032;-80
2021/06/15 10:27:57;;;;;;;7.90;3.92;;;28.10;87.10;;;;;;5046888;28;20100;-80
2021/06/15 10:30:32;;;;;;;11.90;4.40;;;28.30;87.20;;;;;;5047021;28;20017;-79
2021/06/15 10:33:02;;;;;;;10.13;4.72;;;28.30;87.70;;;;;;5049450;28;20053;-79
2021/06/15 10:35:45;;;;;;;8.68;4.60;;;28.30;87.40;;;;;;5046794;28;20024;-79
2021/06/15 10:38:25;;;;;;;10.13;4.82;;;28.40;87.50;;;;;;5045593;28;20030;-79
2021/06/15 10:40:52;;;;;;;5.93;4.07;;;28.30;87.50;;;;;;5066911;28;20039;-79
2021/06/15 10:43:26;;;;;;;7.50;4.97;;;28.40;86.80;;;;;;5064817;28;20043;-79
2021/06/15 10:46:04;;;;;;;9.88;4.70;;;28.50;88.00;;;;;;5066539;28;20040;-79
2021/06/15 10:48:40;;;;;;;7.47;4.30;;;28.30;86.70;;;;;;5048937;28;20262;-79
2021/06/15 10:51:22;;;;;;;10.52;4.80;;;28.50;86.80;;;;;;5066457;28;20025;-80
2021/06/15 10:53:48;;;;;;;9.75;5.00;;;28.70;87.00;;;;;;5066036;28;20048;-78
2021/06/15 10:56:23;;;;;;;8.55;5.07;;;28.60;88.40;;;;;;5066239;28;20512;-78
2021/06/15 10:59:02;;;;;;;5.43;4.03;;;28.90;86.80;;;;;;5064708;28;20020;-80
2021/06/15 11:01:36;;;;;;;19.65;5.32;;;29.00;87.00;;;;;;5046174;28;20538;-78
2021/06/15 11:04:03;;;;;;;9.02;4.57;;;29.00;86.40;;;;;;5046363;28;20033;-77
2021/06/15 11:06:29;;;;;;;7.00;4.32;;;28.90;86.90;;;;;;5045820;28;20068;-78
2021/06/15 11:09:03;;;;;;;8.02;4.20;;;29.00;87.00;;;;;;5045902;28;20064;-78
2021/06/15 11:11:31;;;;;;;10.82;4.40;;;29.00;86.70;;;;;;5045622;28;20106;-78
2021/06/15 11:14:15;;;;;;;11.55;5.32;;;28.90;86.00;;;;;;5045586;28;20029;-76
2021/06/15 11:16:51;;;;;;;10.60;4.38;;;28.60;85.90;;;;;;5045951;28;20108;-78
2021/06/15 11:19:17;;;;;;;8.02;4.32;;;28.70;87.00;;;;;;5046571;28;20534;-78
2021/06/15 11:21:52;;;;;;;8.20;4.88;;;29.30;85.80;;;;;;5045623;28;20033;-78
2021/06/15 11:24:20;;;;;;;8.88;4.95;;;29.40;85.40;;;;;;5045036;28;20037;-78
2021/06/15 11:26:57;;;;;;;6.85;4.15;;;29.20;85.00;;;;;;5045201;28;20032;-78
2021/06/15 11:29:37;;;;;;;7.90;4.22;;;28.90;85.40;;;;;;5044417;28;20020;-78
2021/06/15 11:32:21;;;;;;;7.10;4.10;;;29.60;86.80;;;;;;5056889;28;20449;-78
2021/06/15 11:34:53;;;;;;;;;;;29.40;85.00;;;;;;5066041;28;20490;-78
2021/06/15 11:37:23;;;;;;;7.25;4.05;;;29.20;84.10;;;;;;5065195;28;19904;-78
2021/06/15 11:39:50;;;;;;;11.55;5.10;;;29.30;84.50;;;;;;5065407;28;20024;-78
2021/06/15 11:42:34;;;;;;;11.15;4.50;;;29.40;84.60;;;;;;5055020;28;20029;-78
2021/06/15 11:45:19;;;;;;;7.97;4.50;;;29.40;84.40;;;;;;5045596;28;20116;-78
2021/06/15 11:47:52;;;;;;;8.48;4.22;;;29.40;84.40;;;;;;5045498;28;20032;-78
2021/06/15 11:50:28;;;;;;;6.35;4.43;;;29.30;84.50;;;;;;5045162;28;20044;-78
2021/06/15 11:53:01;;;;;;;7.95;3.75;;;29.30;84.10;;;;;;5045376;28;20029;-78
2021/06/15 11:55:37;;;;;;;6.40;4.70;;;29.30;83.40;;;;;;5045228;28;20039;-78
2021/06/15 11:58:12;;;;;;;7.00;3.65;;;29.70;83.80;;;;;;5045406;28;20906;-78
2021/06/15 12:00:40;;;;;;;8.70;4.40;;;29.60;82.70;;;;;;5044976;28;20076;-78
2021/06/15 12:03:10;;;;;;;5.90;3.67;;;29.80;83.70;;;;;;5044950;28;20039;-78
2021/06/15 12:05:38;;;;;;;8.93;4.65;;;29.80;83.40;;;;;;5045242;28;20351;-78
2021/06/15 12:08:04;;;;;;;7.85;4.10;;;30.20;84.00;;;;;;5056537;28;20025;-78
2021/06/15 12:10:30;;;;;;;5.90;3.63;;;30.10;83.10;;;;;;5064774;28;20066;-78
2021/06/15 12:13:04;;;;;;;5.15;3.55;;;30.20;83.80;;;;;;5065027;28;20059;-78
2021/06/15 12:15:43;;;;;;;6.63;3.97;;;30.00;83.00;;;;;;5064641;28;20108;-77
2021/06/15 12:18:34;;;;;;;9.77;4.95;;;30.10;82.00;;;;;;5053975;28;20499;-78
2021/06/15 12:21:09;;;;;;;5.68;3.95;;;30.30;81.70;;;;;;5036463;28;20519;-78
2021/06/15 12:23:36;;;;;;;6.55;3.53;;;30.20;82.10;;;;;;5044523;28;20199;-78
2021/06/15 12:26:08;;;;;;;7.53;3.65;;;30.20;82.70;;;;;;5043380;28;20460;-78
2021/06/15 12:28:39;;;;;;;6.50;4.28;;;30.30;82.70;;;;;;5044844;28;20122;-78
2021/06/15 12:31:10;;;;;;;8.18;3.92;;;30.30;82.00;;;;;;5052211;28;20020;-78
2021/06/15 12:33:37;;;;;;;7.63;4.10;;;30.40;82.10;;;;;;5063290;28;20017;-78
2021/06/15 12:36:06;;;;;;;8.20;3.88;;;29.90;81.50;;;;;;5055593;28;20032;-78
2021/06/15 12:38:32;;;;;;;8.77;4.03;;;30.10;82.40;;;;;;5044271;28;20060;-78
2021/06/15 12:40:59;;;;;;;10.75;4.75;;;30.20;82.20;;;;;;5044511;28;20025;-78
2021/06/15 12:43:28;;;;;;;11.70;4.30;;;30.40;81.50;;;;;;5044068;28;20033;-78
2021/06/15 12:46:06;;;;;;;7.03;4.32;;;30.50;80.30;;;;;;5044332;28;20029;-78
2021/06/15 12:48:31;;;;;;;6.65;3.63;;;30.20;80.70;;;;;;5044143;28;20025;-78
2021/06/15 12:51:17;;;;;;;5.95;3.85;;;30.40;81.40;;;;;;5044037;28;20025;-78
2021/06/15 12:53:43;;;;;;;12.65;3.97;;;30.20;81.30;;;;;;5045015;28;20881;-78
2021/06/15 12:56:13;;;;;;;9.85;4.18;;;30.50;81.40;;;;;;5043791;28;20500;-78
2021/06/15 12:58:40;;;;;;;6.35;3.28;;;30.40;81.10;;;;;;5044434;28;20336;-78